Time;durP1;ratioP1;P1;durP2;ratioP2;P2;SDS_P1;SDS_P2;PMS_P1;PMS_P2;Temp;Humidity;BMP_temperature;BMP_pressure;BME280_temperature;BME280_humidity;BME280_pressure;Samples;Min_cycle;Max_cycle;Signal;HPM_P1;HPM_P2
2023/09/10 00:01:09;;;;;;;10.90;10.40;;;;;;;;;;5090674;28;20028;-60
2023/09/10 00:03:35;;;;;;;10.55;10.05;;;;;;;;;;5087043;28;20099;-60
2023/09/10 00:06:03;;;;;;;10.82;10.32;;;;;;;;;;5089225;28;20090;-61
2023/09/10 00:08:28;;;;;;;10.82;10.32;;;;;;;;;;5090508;28;20108;-61
2023/09/10 00:10:55;;;;;;;10.80;10.30;;;;;;;;;;5091241;28;20116;-60
2023/09/10 00:13:20;;;;;;;10.63;10.13;;;;;;;;;;5091616;28;20472;-61
2023/09/10 00:15:46;;;;;;;10.90;10.40;;;;;;;;;;5095478;28;20020;-60
2023/09/10 00:18:11;;;;;;;11.23;10.73;;;;;;;;;;5084923;28;20020;-60
2023/09/10 00:20:37;;;;;;;10.90;10.40;;;;;;;;;;5090840;28;20823;-61
2023/09/10 00:23:03;;;;;;;11.00;10.50;;;;;;;;;;5085577;28;20046;-61
2023/09/10 00:25:28;;;;;;;10.82;10.32;;;;;;;;;;5089191;28;20040;-61
2023/09/10 00:27:54;;;;;;;11.50;11.00;;;;;;;;;;5081786;28;20028;-61
2023/09/10 00:30:19;;;;;;;11.00;10.50;;;;;;;;;;5091366;28;20031;-60
2023/09/10 00:32:44;;;;;;;10.70;10.20;;;;;;;;;;5088126;28;20478;-61
2023/09/10 00:35:10;;;;;;;10.75;10.25;;;;;;;;;;5085255;28;20112;-60
2023/09/10 00:37:35;;;;;;;10.90;10.40;;;;;;;;;;5086611;28;20031;-61
2023/09/10 00:40:00;;;;;;;10.60;10.10;;;;;;;;;;5089801;28;20547;-62
2023/09/10 00:42:26;;;;;;;11.27;10.77;;;;;;;;;;5083763;28;20463;-61
2023/09/10 00:44:51;;;;;;;10.90;10.40;;;;;;;;;;5080599;28;20027;-62
2023/09/10 00:47:17;;;;;;;10.73;10.23;;;;;;;;;;5078380;28;20032;-60
2023/09/10 00:49:43;;;;;;;10.80;10.30;;;;;;;;;;5087304;28;20391;-60
2023/09/10 00:52:09;;;;;;;11.00;10.50;;;;;;;;;;5087200;28;20432;-61
2023/09/10 00:54:35;;;;;;;10.88;10.38;;;;;;;;;;5082350;28;20020;-61
2023/09/10 00:57:01;;;;;;;11.18;10.68;;;;;;;;;;5089655;28;20030;-60
2023/09/10 00:59:30;;;;;;;10.48;9.98;;;;;;;;;;5083411;28;20044;-59
2023/09/10 01:01:57;;;;;;;10.77;10.27;;;;;;;;;;5088886;28;20038;-60
2023/09/10 01:04:23;;;;;;;10.68;10.18;;;;;;;;;;5085413;28;20040;-61
2023/09/10 01:06:49;;;;;;;10.68;10.18;;;;;;;;;;5085367;28;20024;-60
2023/09/10 01:09:14;;;;;;;10.85;10.35;;;;;;;;;;5084000;28;20025;-61
2023/09/10 01:11:49;;;;;;;11.68;11.18;;;;;;;;;;5081366;28;20032;-61
2023/09/10 01:14:20;;;;;;;10.75;10.25;;;;;;;;;;5089223;28;20019;-60
2023/09/10 01:17:05;;;;;;;10.55;10.05;;;;;;;;;;5090159;28;20024;-61
2023/09/10 01:19:33;;;;;;;10.90;10.40;;;;;;;;;;5083457;28;20021;-60
2023/09/10 01:22:23;;;;;;;11.52;11.02;;;;;;;;;;5085616;28;20652;-61
2023/09/10 01:24:50;;;;;;;10.75;10.25;;;;;;;;;;5086213;28;20127;-61
2023/09/10 01:27:15;;;;;;;10.82;10.32;;;;;;;;;;5080947;28;20064;-64
2023/09/10 01:29:41;;;;;;;11.35;10.85;;;;;;;;;;5085047;28;20050;-60
2023/09/10 01:32:10;;;;;;;11.10;10.60;;;;;;;;;;5087690;28;20487;-61
2023/09/10 01:34:42;;;;;;;10.88;10.38;;;;;;;;;;5082620;28;20055;-60
2023/09/10 01:37:13;;;;;;;11.35;10.85;;;;;;;;;;5085125;28;20080;-61
2023/09/10 01:39:41;;;;;;;11.50;11.00;;;;;;;;;;5092003;28;20012;-61
2023/09/10 01:42:07;;;;;;;10.55;10.05;;;;;;;;;;5087829;28;20058;-60
2023/09/10 01:44:34;;;;;;;11.20;10.70;;;;;;;;;;5079171;28;20035;-60
2023/09/10 01:47:00;;;;;;;10.63;10.13;;;;;;;;;;5083738;28;20099;-60
2023/09/10 01:49:25;;;;;;;10.98;10.48;;;;;;;;;;5084582;28;20100;-61
2023/09/10 01:51:50;;;;;;;10.50;10.00;;;;;;;;;;5086899;28;20106;-60
2023/09/10 01:54:16;;;;;;;10.77;10.27;;;;;;;;;;5092957;28;20350;-60
2023/09/10 01:56:41;;;;;;;10.88;10.38;;;;;;;;;;5089747;28;20959;-60
2023/09/10 01:59:06;;;;;;;10.35;9.85;;;;;;;;;;5079182;28;20107;-61
2023/09/10 02:01:32;;;;;;;10.80;10.30;;;;;;;;;;5085858;28;20078;-61
2023/09/10 02:03:57;;;;;;;11.10;10.60;;;;;;;;;;5080473;28;20040;-60
2023/09/10 02:06:22;;;;;;;10.65;10.15;;;;;;;;;;5083655;28;20528;-60
2023/09/10 02:08:48;;;;;;;11.38;10.88;;;;;;;;;;5085738;28;20031;-60
2023/09/10 02:11:13;;;;;;;11.00;10.50;;;;;;;;;;5089507;28;20051;-60
2023/09/10 02:13:39;;;;;;;10.70;10.20;;;;;;;;;;5086167;28;20019;-61
2023/09/10 02:16:04;;;;;;;11.00;10.50;;;;;;;;;;5087023;28;20106;-60
2023/09/10 02:18:29;;;;;;;11.10;10.60;;;;;;;;;;5092985;28;20020;-61
2023/09/10 02:20:55;;;;;;;10.70;10.20;;;;;;;;;;5090949;28;20020;-60
2023/09/10 02:23:20;;;;;;;10.18;9.77;;;;;;;;;;5082938;28;20013;-60
2023/09/10 02:25:46;;;;;;;10.70;10.20;;;;;;;;;;5086358;28;20047;-60
2023/09/10 02:28:12;;;;;;;11.18;10.68;;;;;;;;;;5096940;28;20032;-60
2023/09/10 02:30:37;;;;;;;10.77;10.27;;;;;;;;;;5082525;28;20088;-60
2023/09/10 02:33:03;;;;;;;10.90;10.40;;;;;;;;;;5086198;28;20471;-61
2023/09/10 02:35:28;;;;;;;10.68;10.18;;;;;;;;;;5083408;28;20027;-61
2023/09/10 02:37:53;;;;;;;10.77;10.27;;;;;;;;;;5087543;28;20395;-60
2023/09/10 02:40:18;;;;;;;11.02;10.52;;;;;;;;;;5084909;28;20024;-62
2023/09/10 02:42:44;;;;;;;10.65;10.15;;;;;;;;;;5089864;28;20019;-59
2023/09/10 02:45:10;;;;;;;10.63;10.13;;;;;;;;;;5089465;28;20015;-60
2023/09/10 02:47:35;;;;;;;10.80;10.30;;;;;;;;;;5086540;28;20020;-59
2023/09/10 02:50:01;;;;;;;10.60;10.10;;;;;;;;;;5086570;28;20479;-60
2023/09/10 02:52:30;;;;;;;10.48;9.98;;;;;;;;;;5087630;28;20922;-59
2023/09/10 02:54:55;;;;;;;10.85;10.35;;;;;;;;;;5084702;28;20032;-61
2023/09/10 02:57:20;;;;;;;11.15;10.65;;;;;;;;;;5087146;28;20043;-60
2023/09/10 02:59:46;;;;;;;10.60;10.10;;;;;;;;;;5090086;28;20399;-60
2023/09/10 03:02:11;;;;;;;10.80;10.30;;;;;;;;;;5084919;28;20418;-60
2023/09/10 03:04:36;;;;;;;10.90;10.40;;;;;;;;;;5088743;28;20561;-61
2023/09/10 03:07:02;;;;;;;11.20;10.70;;;;;;;;;;5088459;28;20555;-61
2023/09/10 03:09:27;;;;;;;10.55;10.05;;;;;;;;;;5087450;28;20420;-60
2023/09/10 03:11:53;;;;;;;10.80;10.30;;;;;;;;;;5090645;28;20036;-60
2023/09/10 03:14:18;;;;;;;10.63;10.13;;;;;;;;;;5089392;28;20020;-60
2023/09/10 03:16:44;;;;;;;10.55;10.05;;;;;;;;;;5088507;28;20747;-61
2023/09/10 03:19:09;;;;;;;10.80;10.30;;;;;;;;;;5095938;28;20023;-59
2023/09/10 03:21:35;;;;;;;10.70;10.20;;;;;;;;;;5093231;28;20102;-62
2023/09/10 03:24:00;;;;;;;11.00;10.50;;;;;;;;;;5088193;28;20423;-61
2023/09/10 03:26:26;;;;;;;10.80;10.30;;;;;;;;;;5090857;28;20418;-60
2023/09/10 03:28:51;;;;;;;10.88;10.38;;;;;;;;;;5093322;28;20032;-62
2023/09/10 03:31:16;;;;;;;10.90;10.40;;;;;;;;;;5088132;28;20450;-62
2023/09/10 03:33:43;;;;;;;10.80;10.30;;;;;;;;;;5087239;28;20039;-60
2023/09/10 03:36:09;;;;;;;10.35;9.88;;;;;;;;;;5091384;28;20027;-61
2023/09/10 03:38:34;;;;;;;10.68;10.18;;;;;;;;;;5087856;28;20065;-61
2023/09/10 03:41:00;;;;;;;11.35;10.85;;;;;;;;;;5080225;28;20024;-60
2023/09/10 03:43:25;;;;;;;10.68;10.18;;;;;;;;;;5093135;28;20043;-61
2023/09/10 03:45:51;;;;;;;10.70;10.20;;;;;;;;;;5090958;28;20506;-59
2023/09/10 03:48:16;;;;;;;10.75;10.25;;;;;;;;;;5089891;27;20020;-60
2023/09/10 03:50:41;;;;;;;10.70;10.20;;;;;;;;;;5088633;28;20480;-60
2023/09/10 03:53:07;;;;;;;10.90;10.40;;;;;;;;;;5089308;28;20043;-60
2023/09/10 03:55:32;;;;;;;10.93;10.43;;;;;;;;;;5092347;28;21959;-61
2023/09/10 03:57:58;;;;;;;10.27;9.77;;;;;;;;;;5085190;28;20048;-61
2023/09/10 04:00:23;;;;;;;11.40;10.90;;;;;;;;;;5089633;28;20042;-60
2023/09/10 04:02:48;;;;;;;10.65;10.15;;;;;;;;;;5087184;28;20029;-60
2023/09/10 04:05:14;;;;;;;10.80;10.30;;;;;;;;;;5085038;28;20055;-60
2023/09/10 04:07:39;;;;;;;10.50;10.00;;;;;;;;;;5091019;28;20071;-61
2023/09/10 04:10:06;;;;;;;10.80;10.30;;;;;;;;;;5088706;28;20021;-59
2023/09/10 04:12:31;;;;;;;10.98;10.48;;;;;;;;;;5084831;28;20070;-60
2023/09/10 04:14:57;;;;;;;10.82;10.32;;;;;;;;;;5095344;28;20052;-60
2023/09/10 04:17:22;;;;;;;10.93;10.43;;;;;;;;;;5089518;28;20047;-62
2023/09/10 04:19:47;;;;;;;10.93;10.43;;;;;;;;;;5088819;28;20020;-60
2023/09/10 04:22:14;;;;;;;11.25;10.75;;;;;;;;;;5086733;28;20024;-60
2023/09/10 04:24:39;;;;;;;11.10;10.60;;;;;;;;;;5087723;28;20012;-59
2023/09/10 04:27:04;;;;;;;11.20;10.70;;;;;;;;;;5089524;28;20799;-59
2023/09/10 04:29:31;;;;;;;11.20;10.70;;;;;;;;;;5084912;28;20029;-60
2023/09/10 04:31:57;;;;;;;11.30;10.80;;;;;;;;;;5085823;28;20024;-61
2023/09/10 04:34:22;;;;;;;11.20;10.70;;;;;;;;;;5086495;28;20050;-60
2023/09/10 04:36:47;;;;;;;10.90;10.40;;;;;;;;;;5083836;28;20025;-60
2023/09/10 04:39:12;;;;;;;11.32;10.82;;;;;;;;;;5084332;28;20481;-61
2023/09/10 04:41:38;;;;;;;11.15;10.65;;;;;;;;;;5087001;28;20053;-61
2023/09/10 04:44:03;;;;;;;11.20;10.70;;;;;;;;;;5093176;28;20020;-59
2023/09/10 04:46:29;;;;;;;11.43;10.93;;;;;;;;;;5087170;28;20028;-60
2023/09/10 04:48:55;;;;;;;11.52;11.02;;;;;;;;;;5083131;28;20024;-60
2023/09/10 04:51:20;;;;;;;11.60;11.10;;;;;;;;;;5087106;28;20047;-59
2023/09/10 04:53:46;;;;;;;11.95;11.45;;;;;;;;;;5085629;28;20016;-60
2023/09/10 04:56:11;;;;;;;11.30;10.80;;;;;;;;;;5085442;28;21193;-60
2023/09/10 04:58:36;;;;;;;11.10;10.60;;;;;;;;;;5087947;28;20554;-60
2023/09/10 05:01:02;;;;;;;11.32;10.82;;;;;;;;;;5088196;28;20100;-62
2023/09/10 05:03:27;;;;;;;11.13;10.63;;;;;;;;;;5090004;28;20474;-60
2023/09/10 05:05:59;;;;;;;11.10;10.60;;;;;;;;;;5085075;28;20047;-59
2023/09/10 05:08:25;;;;;;;11.38;10.88;;;;;;;;;;5084955;28;20061;-61
2023/09/10 05:10:50;;;;;;;11.10;10.60;;;;;;;;;;5089253;28;20033;-61
2023/09/10 05:13:15;;;;;;;11.85;11.35;;;;;;;;;;5084342;28;20016;-60
2023/09/10 05:15:41;;;;;;;11.15;10.65;;;;;;;;;;5089280;28;20036;-61
2023/09/10 05:18:06;;;;;;;11.10;10.60;;;;;;;;;;5086219;28;20040;-61
2023/09/10 05:20:32;;;;;;;11.70;11.20;;;;;;;;;;5083517;28;20055;-60
2023/09/10 05:22:57;;;;;;;11.68;11.18;;;;;;;;;;5085467;28;20099;-62
2023/09/10 05:25:23;;;;;;;11.55;11.05;;;;;;;;;;5086664;28;20448;-60
2023/09/10 05:27:48;;;;;;;11.50;11.00;;;;;;;;;;5085889;28;20028;-60
2023/09/10 05:30:13;;;;;;;11.30;10.80;;;;;;;;;;5086505;28;20031;-60
2023/09/10 05:32:39;;;;;;;11.32;10.82;;;;;;;;;;5086190;28;20469;-60
2023/09/10 05:35:04;;;;;;;11.30;10.80;;;;;;;;;;5085415;28;20016;-60
2023/09/10 05:37:29;;;;;;;11.50;11.00;;;;;;;;;;5090791;28;20028;-61
2023/09/10 05:39:55;;;;;;;11.60;11.10;;;;;;;;;;5087010;28;20475;-61
2023/09/10 05:42:20;;;;;;;11.60;11.10;;;;;;;;;;5090507;28;20493;-61
2023/09/10 05:44:45;;;;;;;11.68;11.18;;;;;;;;;;5084742;28;20020;-60
2023/09/10 05:47:11;;;;;;;11.50;11.00;;;;;;;;;;5086821;28;20232;-60
2023/09/10 05:49:37;;;;;;;11.90;11.40;;;;;;;;;;5087606;28;20616;-59
2023/09/10 05:52:03;;;;;;;11.65;11.15;;;;;;;;;;5087261;28;20026;-61
2023/09/10 05:54:28;;;;;;;11.80;11.30;;;;;;;;;;5085394;28;20023;-60
2023/09/10 05:56:54;;;;;;;11.80;11.30;;;;;;;;;;5080142;28;20035;-61
2023/09/10 05:59:19;;;;;;;11.88;11.38;;;;;;;;;;5084327;28;20023;-59
2023/09/10 06:01:44;;;;;;;11.90;11.40;;;;;;;;;;5083280;28;20021;-60
2023/09/10 06:04:10;;;;;;;11.80;11.30;;;;;;;;;;5082529;28;20079;-58
2023/09/10 06:06:35;;;;;;;11.70;11.20;;;;;;;;;;5082649;28;20047;-61
2023/09/10 06:09:00;;;;;;;11.90;11.40;;;;;;;;;;5086584;28;20095;-61
2023/09/10 06:11:26;;;;;;;11.85;11.35;;;;;;;;;;5081161;28;20024;-60
2023/09/10 06:13:51;;;;;;;11.90;11.40;;;;;;;;;;5081046;28;20032;-61
2023/09/10 06:16:16;;;;;;;12.00;11.50;;;;;;;;;;5083640;28;20339;-59
2023/09/10 06:18:41;;;;;;;12.07;11.57;;;;;;;;;;5084099;28;20627;-60
2023/09/10 06:21:07;;;;;;;11.80;11.30;;;;;;;;;;5081556;28;20022;-60
2023/09/10 06:23:32;;;;;;;11.70;11.20;;;;;;;;;;5083888;28;20277;-60
2023/09/10 06:25:57;;;;;;;11.82;11.32;;;;;;;;;;5085518;28;20268;-60
2023/09/10 06:28:24;;;;;;;11.88;11.38;;;;;;;;;;5089511;28;20041;-59
2023/09/10 06:30:49;;;;;;;12.10;11.60;;;;;;;;;;5080959;28;20051;-60
2023/09/10 06:33:15;;;;;;;12.23;11.73;;;;;;;;;;5089397;28;20092;-61
2023/09/10 06:35:40;;;;;;;11.93;11.43;;;;;;;;;;5082413;28;20474;-60
2023/09/10 06:38:06;;;;;;;11.77;11.27;;;;;;;;;;5083634;28;20032;-60
2023/09/10 06:40:31;;;;;;;11.90;11.40;;;;;;;;;;5084196;28;20024;-59
2023/09/10 06:42:57;;;;;;;11.85;11.35;;;;;;;;;;5086269;28;20036;-59
2023/09/10 06:45:22;;;;;;;11.90;11.40;;;;;;;;;;5080808;28;20472;-60
2023/09/10 06:47:47;;;;;;;11.77;11.27;;;;;;;;;;5080637;28;20020;-60
2023/09/10 06:50:13;;;;;;;12.07;11.57;;;;;;;;;;5084135;28;20260;-59
2023/09/10 06:52:38;;;;;;;11.80;11.30;;;;;;;;;;5082034;28;20296;-61
2023/09/10 06:55:03;;;;;;;11.60;11.10;;;;;;;;;;5086196;28;20052;-60
2023/09/10 06:57:30;;;;;;;11.70;11.20;;;;;;;;;;5081740;28;20640;-60
2023/09/10 06:59:57;;;;;;;12.15;11.65;;;;;;;;;;5079907;28;20038;-59
2023/09/10 07:02:22;;;;;;;11.75;11.25;;;;;;;;;;5084130;28;20057;-59
2023/09/10 07:04:47;;;;;;;11.95;11.45;;;;;;;;;;5084014;28;20072;-60
2023/09/10 07:07:14;;;;;;;12.00;11.50;;;;;;;;;;5086126;28;20031;-59
2023/09/10 07:09:39;;;;;;;12.13;11.63;;;;;;;;;;5082770;28;20596;-60
2023/09/10 07:12:06;;;;;;;11.80;11.30;;;;;;;;;;5080397;28;20064;-60
2023/09/10 07:14:31;;;;;;;11.85;11.35;;;;;;;;;;5084589;28;20249;-62
2023/09/10 07:16:56;;;;;;;11.80;11.30;;;;;;;;;;5082574;28;20028;-60
2023/09/10 07:19:22;;;;;;;12.02;11.52;;;;;;;;;;5078678;28;20082;-60
2023/09/10 07:21:47;;;;;;;11.88;11.38;;;;;;;;;;5083715;28;20429;-59
2023/09/10 07:24:12;;;;;;;12.07;11.57;;;;;;;;;;5079014;28;20476;-60
2023/09/10 07:26:38;;;;;;;11.70;11.20;;;;;;;;;;5082137;28;20256;-60
2023/09/10 07:29:04;;;;;;;11.90;11.40;;;;;;;;;;5077382;28;20345;-61
2023/09/10 07:31:30;;;;;;;11.77;11.27;;;;;;;;;;5082933;28;20051;-60
2023/09/10 07:33:55;;;;;;;11.80;11.30;;;;;;;;;;5087514;28;20542;-61
2023/09/10 07:36:20;;;;;;;11.98;11.48;;;;;;;;;;5079234;28;20058;-60
2023/09/10 07:38:45;;;;;;;11.90;11.40;;;;;;;;;;5079196;28;20115;-60
2023/09/10 07:41:11;;;;;;;12.00;11.50;;;;;;;;;;5086994;28;20330;-59
2023/09/10 07:43:36;;;;;;;11.97;11.47;;;;;;;;;;5082552;28;20019;-61
2023/09/10 07:46:02;;;;;;;12.15;11.65;;;;;;;;;;5083796;28;20267;-60
2023/09/10 07:48:27;;;;;;;12.05;11.55;;;;;;;;;;5082512;28;20580;-60
2023/09/10 07:50:53;;;;;;;11.73;11.23;;;;;;;;;;5083190;28;20035;-60
2023/09/10 07:53:19;;;;;;;11.90;11.40;;;;;;;;;;5088615;28;20608;-59
2023/09/10 07:55:44;;;;;;;12.15;11.65;;;;;;;;;;5082144;28;20016;-60
2023/09/10 07:58:09;;;;;;;11.90;11.40;;;;;;;;;;5087418;28;20017;-60
2023/09/10 08:00:36;;;;;;;11.85;11.35;;;;;;;;;;5089300;28;20017;-61
2023/09/10 08:03:03;;;;;;;11.93;11.43;;;;;;;;;;5081994;28;20027;-59
2023/09/10 08:05:29;;;;;;;11.95;11.45;;;;;;;;;;5089650;28;20080;-61
2023/09/10 08:07:54;;;;;;;12.00;11.50;;;;;;;;;;5081817;28;20048;-61
2023/09/10 08:10:19;;;;;;;11.80;11.30;;;;;;;;;;5091467;28;20191;-61
2023/09/10 08:12:45;;;;;;;11.77;11.27;;;;;;;;;;5091078;28;20889;-60
2023/09/10 08:15:10;;;;;;;11.88;11.38;;;;;;;;;;5088753;28;20034;-60
2023/09/10 08:17:36;;;;;;;11.85;11.35;;;;;;;;;;5087276;28;20024;-58
2023/09/10 08:20:03;;;;;;;11.95;11.45;;;;;;;;;;5086352;28;20029;-60
2023/09/10 08:22:28;;;;;;;11.70;11.20;;;;;;;;;;5086657;28;20057;-61
2023/09/10 08:24:55;;;;;;;11.48;10.98;;;;;;;;;;5089197;28;20017;-60
2023/09/10 08:27:20;;;;;;;11.68;11.18;;;;;;;;;;5089109;28;20030;-60
2023/09/10 08:29:45;;;;;;;12.13;11.63;;;;;;;;;;5089547;28;20020;-59
2023/09/10 08:32:11;;;;;;;11.70;11.20;;;;;;;;;;5089624;28;20022;-60
2023/09/10 08:34:36;;;;;;;11.90;11.40;;;;;;;;;;5085987;28;20103;-59
2023/09/10 08:37:05;;;;;;;11.75;11.25;;;;;;;;;;5086484;28;20032;-60
2023/09/10 08:39:31;;;;;;;11.80;11.30;;;;;;;;;;5088308;28;20016;-59
2023/09/10 08:42:04;;;;;;;12.13;11.63;;;;;;;;;;5088348;28;20490;-61
2023/09/10 08:44:30;;;;;;;11.93;11.43;;;;;;;;;;5086943;28;20054;-60
2023/09/10 08:46:58;;;;;;;11.90;11.40;;;;;;;;;;5085971;28;20051;-60
2023/09/10 08:49:26;;;;;;;11.70;11.20;;;;;;;;;;5087952;28;20043;-59
2023/09/10 08:51:52;;;;;;;11.55;11.05;;;;;;;;;;5084024;28;20021;-59
2023/09/10 08:54:17;;;;;;;11.50;11.00;;;;;;;;;;5083819;28;20025;-60
2023/09/10 08:56:43;;;;;;;11.80;11.30;;;;;;;;;;5089699;28;20054;-60
2023/09/10 08:59:09;;;;;;;11.77;11.27;;;;;;;;;;5083894;28;20019;-60
2023/09/10 09:01:35;;;;;;;11.68;11.18;;;;;;;;;;5085299;28;20034;-61
2023/09/10 09:04:01;;;;;;;11.75;11.25;;;;;;;;;;5083224;28;20102;-60
2023/09/10 09:06:28;;;;;;;11.77;11.27;;;;;;;;;;5082001;28;20111;-59
2023/09/10 09:08:55;;;;;;;11.77;11.27;;;;;;;;;;5085504;28;20024;-60
2023/09/10 09:11:21;;;;;;;11.50;11.00;;;;;;;;;;5089386;28;20515;-59
2023/09/10 09:13:48;;;;;;;11.45;10.95;;;;;;;;;;5085342;28;20070;-61
2023/09/10 09:16:15;;;;;;;11.43;10.93;;;;;;;;;;5084587;28;20099;-59
2023/09/10 09:18:41;;;;;;;11.57;11.07;;;;;;;;;;5086264;28;20016;-59
2023/09/10 09:21:26;;;;;;;11.50;11.00;;;;;;;;;;5085276;28;20024;-60
2023/09/10 09:23:59;;;;;;;11.63;11.13;;;;;;;;;;5083001;28;20051;-59
2023/09/10 09:26:24;;;;;;;12.00;11.50;;;;;;;;;;5086003;28;20487;-60
2023/09/10 09:28:50;;;;;;;11.85;11.35;;;;;;;;;;5083274;28;20032;-60
2023/09/10 09:31:19;;;;;;;11.55;11.05;;;;;;;;;;5083405;28;20071;-60
2023/09/10 09:33:44;;;;;;;11.65;11.15;;;;;;;;;;5086283;28;20020;-61
2023/09/10 09:36:10;;;;;;;11.88;11.38;;;;;;;;;;5083267;28;20035;-60
2023/09/10 09:38:40;;;;;;;11.38;10.88;;;;;;;;;;5085218;28;20115;-59
2023/09/10 09:41:06;;;;;;;11.40;10.90;;;;;;;;;;5079519;28;20017;-60
2023/09/10 09:43:32;;;;;;;11.55;11.05;;;;;;;;;;5076827;28;20039;-61
2023/09/10 09:45:58;;;;;;;11.85;11.35;;;;;;;;;;5077916;28;20031;-59
2023/09/10 09:48:23;;;;;;;11.63;11.13;;;;;;;;;;5078014;28;20020;-60
2023/09/10 09:50:49;;;;;;;11.60;11.10;;;;;;;;;;5088935;28;20509;-60
2023/09/10 09:53:15;;;;;;;11.70;11.20;;;;;;;;;;5081026;28;20024;-60
2023/09/10 09:55:42;;;;;;;11.88;11.38;;;;;;;;;;5083380;28;20029;-60
2023/09/10 09:58:07;;;;;;;11.70;11.20;;;;;;;;;;5084906;28;20026;-59
2023/09/10 10:00:34;;;;;;;11.70;11.20;;;;;;;;;;5082801;28;20486;-59
2023/09/10 10:02:59;;;;;;;11.73;11.23;;;;;;;;;;5082658;28;20390;-60
2023/09/10 10:05:24;;;;;;;11.45;10.95;;;;;;;;;;5084203;28;20047;-58
2023/09/10 10:07:50;;;;;;;11.48;10.98;;;;;;;;;;5083219;28;20042;-59
2023/09/10 10:10:15;;;;;;;11.55;11.05;;;;;;;;;;5079232;28;20495;-59
2023/09/10 10:12:43;;;;;;;11.52;11.02;;;;;;;;;;5081256;28;20110;-60
2023/09/10 10:15:08;;;;;;;11.35;10.85;;;;;;;;;;5087289;28;20041;-62
2023/09/10 10:17:34;;;;;;;11.63;11.13;;;;;;;;;;5083417;28;20414;-61
2023/09/10 10:20:01;;;;;;;11.23;10.73;;;;;;;;;;5080995;28;20020;-61
2023/09/10 10:22:26;;;;;;;11.57;11.07;;;;;;;;;;5081167;28;20020;-61
2023/09/10 10:24:51;;;;;;;11.85;11.35;;;;;;;;;;5081658;28;20065;-61
2023/09/10 10:27:17;;;;;;;11.80;11.30;;;;;;;;;;5085677;28;20179;-60
2023/09/10 10:29:43;;;;;;;11.90;11.40;;;;;;;;;;5084845;28;20028;-61
2023/09/10 10:32:10;;;;;;;11.93;11.43;;;;;;;;;;5086836;28;20026;-61
2023/09/10 10:34:37;;;;;;;11.88;11.38;;;;;;;;;;5083674;28;20016;-61
2023/09/10 10:37:35;;;;;;;11.82;11.32;;;;;;;;;;5076835;28;20039;-60
2023/09/10 10:40:01;;;;;;;11.43;10.93;;;;;;;;;;5068019;28;20036;-59
2023/09/10 10:42:37;;;;;;;11.63;11.13;;;;;;;;;;5077795;28;20499;-60
2023/09/10 10:45:04;;;;;;;11.27;10.77;;;;;;;;;;5087590;28;20021;-61
2023/09/10 10:47:32;;;;;;;11.30;10.80;;;;;;;;;;5080589;28;20024;-61
2023/09/10 10:49:59;;;;;;;11.20;10.70;;;;;;;;;;5081584;28;20216;-60
2023/09/10 10:52:28;;;;;;;11.63;11.13;;;;;;;;;;5082094;28;20572;-61
2023/09/10 10:54:54;;;;;;;11.60;11.10;;;;;;;;;;5082500;28;20491;-60
2023/09/10 10:57:21;;;;;;;11.80;11.30;;;;;;;;;;5083641;28;20119;-60
2023/09/10 10:59:46;;;;;;;11.75;11.25;;;;;;;;;;5084030;28;21260;-61
2023/09/10 11:02:21;;;;;;;11.80;11.30;;;;;;;;;;5084881;28;20032;-61
2023/09/10 11:04:53;;;;;;;12.57;11.98;;;;;;;;;;5080176;28;20055;-61
2023/09/10 11:07:19;;;;;;;12.85;12.25;;;;;;;;;;5073404;28;20036;-60
2023/09/10 11:09:46;;;;;;;12.05;11.55;;;;;;;;;;5075491;28;20013;-60
2023/09/10 11:12:11;;;;;;;12.23;11.73;;;;;;;;;;5079552;28;20499;-60
2023/09/10 11:14:55;;;;;;;12.15;11.65;;;;;;;;;;5083780;28;20051;-60
2023/09/10 11:17:21;;;;;;;11.60;11.10;;;;;;;;;;5076476;28;20089;-61
2023/09/10 11:19:47;;;;;;;12.52;11.93;;;;;;;;;;5071578;28;20609;-63
2023/09/10 11:22:12;;;;;;;12.73;12.13;;;;;;;;;;5083447;28;20016;-61
2023/09/10 11:24:40;;;;;;;12.00;11.50;;;;;;;;;;5083672;28;20032;-60
2023/09/10 11:27:19;;;;;;;12.40;11.82;;;;;;;;;;5080294;28;20047;-60
2023/09/10 11:29:45;;;;;;;12.30;11.75;;;;;;;;;;5081623;28;20036;-60
2023/09/10 11:32:17;;;;;;;12.63;12.02;;;;;;;;;;5080124;28;20024;-61
2023/09/10 11:34:42;;;;;;;12.55;11.95;;;;;;;;;;5079454;28;20436;-61
2023/09/10 11:37:09;;;;;;;12.57;11.98;;;;;;;;;;5082274;28;20023;-63
2023/09/10 11:39:35;;;;;;;13.07;12.48;;;;;;;;;;5081806;28;20016;-61
2023/09/10 11:42:02;;;;;;;12.75;12.15;;;;;;;;;;5078886;28;20020;-60
2023/09/10 11:44:28;;;;;;;12.50;11.90;;;;;;;;;;5084976;28;20623;-63
2023/09/10 11:46:54;;;;;;;11.75;11.25;;;;;;;;;;5080608;28;20028;-60
2023/09/10 11:49:23;;;;;;;12.52;11.93;;;;;;;;;;5081607;28;20086;-62
2023/09/10 11:51:49;;;;;;;12.13;11.63;;;;;;;;;;5077484;28;20125;-61
2023/09/10 11:54:18;;;;;;;11.65;11.15;;;;;;;;;;5082635;28;20029;-61
2023/09/10 11:56:47;;;;;;;12.02;11.52;;;;;;;;;;5082632;28;20509;-61
2023/09/10 11:59:15;;;;;;;11.85;11.35;;;;;;;;;;5084114;28;20020;-60
2023/09/10 12:01:41;;;;;;;12.10;11.60;;;;;;;;;;5079800;28;20027;-60
2023/09/10 12:04:06;;;;;;;12.02;11.52;;;;;;;;;;5082122;28;20048;-62
2023/09/10 12:06:32;;;;;;;12.25;11.75;;;;;;;;;;5082241;28;20099;-61
2023/09/10 12:08:57;;;;;;;11.98;11.48;;;;;;;;;;5083068;28;20033;-61
2023/09/10 12:11:24;;;;;;;12.05;11.55;;;;;;;;;;5080709;28;20038;-62
2023/09/10 12:13:51;;;;;;;11.88;11.38;;;;;;;;;;5082721;28;20035;-61
2023/09/10 12:16:17;;;;;;;11.93;11.43;;;;;;;;;;5082718;28;20453;-61
2023/09/10 12:18:43;;;;;;;12.13;11.63;;;;;;;;;;5084984;28;20016;-61
2023/09/10 12:21:14;;;;;;;11.80;11.30;;;;;;;;;;5088801;28;20051;-61
2023/09/10 12:23:39;;;;;;;11.98;11.48;;;;;;;;;;5087452;28;20027;-62
2023/09/10 12:26:07;;;;;;;12.52;11.93;;;;;;;;;;5082235;28;20085;-63
2023/09/10 12:28:33;;;;;;;11.70;11.20;;;;;;;;;;5078822;28;20119;-62
2023/09/10 12:30:58;;;;;;;11.80;11.30;;;;;;;;;;5085461;28;20110;-62
2023/09/10 12:33:24;;;;;;;12.48;11.90;;;;;;;;;;5083490;28;20533;-62
2023/09/10 12:35:50;;;;;;;11.85;11.35;;;;;;;;;;5084087;28;20020;-63
2023/09/10 12:38:16;;;;;;;12.02;11.52;;;;;;;;;;5080120;28;20036;-62
2023/09/10 12:40:41;;;;;;;12.50;11.90;;;;;;;;;;5081455;28;20016;-63
2023/09/10 12:43:07;;;;;;;11.70;11.20;;;;;;;;;;5084320;28;20024;-62
2023/09/10 12:45:33;;;;;;;11.90;11.40;;;;;;;;;;5077819;28;20028;-61
2023/09/10 12:47:58;;;;;;;12.38;11.82;;;;;;;;;;5086988;28;20020;-63
2023/09/10 12:50:23;;;;;;;11.98;11.48;;;;;;;;;;5082547;28;20030;-63
2023/09/10 12:52:49;;;;;;;11.80;11.30;;;;;;;;;;5083064;28;20046;-61
2023/09/10 12:55:16;;;;;;;11.95;11.45;;;;;;;;;;5080217;28;20405;-61
2023/09/10 12:57:41;;;;;;;12.13;11.63;;;;;;;;;;5080330;28;20028;-62
2023/09/10 13:00:08;;;;;;;11.70;11.20;;;;;;;;;;5078417;28;20097;-60
2023/09/10 13:02:34;;;;;;;11.73;11.23;;;;;;;;;;5080816;28;20032;-62
2023/09/10 13:05:00;;;;;;;11.77;11.27;;;;;;;;;;5086294;28;20102;-62
2023/09/10 13:07:25;;;;;;;11.77;11.27;;;;;;;;;;5081483;28;20098;-62
2023/09/10 13:09:51;;;;;;;12.07;11.57;;;;;;;;;;5083141;28;20085;-61
2023/09/10 13:12:16;;;;;;;12.30;11.80;;;;;;;;;;5076687;28;20372;-61
2023/09/10 13:14:41;;;;;;;11.82;11.32;;;;;;;;;;5083158;28;20414;-62
2023/09/10 13:17:07;;;;;;;12.45;11.85;;;;;;;;;;5083756;28;20056;-62
2023/09/10 13:19:32;;;;;;;12.30;11.75;;;;;;;;;;5083813;28;20036;-61
2023/09/10 13:21:57;;;;;;;12.15;11.65;;;;;;;;;;5074689;28;20038;-61
2023/09/10 13:24:23;;;;;;;11.80;11.30;;;;;;;;;;5074472;28;20028;-62
2023/09/10 13:26:48;;;;;;;11.98;11.48;;;;;;;;;;5078690;28;20020;-63
2023/09/10 13:29:14;;;;;;;11.63;11.13;;;;;;;;;;5080203;28;20074;-62
2023/09/10 13:31:39;;;;;;;11.93;11.43;;;;;;;;;;5075369;28;20457;-61
2023/09/10 13:34:07;;;;;;;11.50;11.00;;;;;;;;;;5084196;28;20032;-62
2023/09/10 13:36:35;;;;;;;11.85;11.35;;;;;;;;;;5085334;28;20390;-60
2023/09/10 13:39:00;;;;;;;11.90;11.40;;;;;;;;;;5079215;28;20480;-61
2023/09/10 13:41:25;;;;;;;11.50;11.00;;;;;;;;;;5082326;28;20017;-60
2023/09/10 13:43:51;;;;;;;11.43;10.93;;;;;;;;;;5088749;28;20019;-61
2023/09/10 13:46:16;;;;;;;12.05;11.55;;;;;;;;;;5082048;28;20429;-61
2023/09/10 13:48:42;;;;;;;11.93;11.43;;;;;;;;;;5083297;28;20028;-60
2023/09/10 13:51:08;;;;;;;11.88;11.38;;;;;;;;;;5082883;28;20522;-61
2023/09/10 13:53:34;;;;;;;11.60;11.10;;;;;;;;;;5084131;28;20238;-64
2023/09/10 13:55:59;;;;;;;11.90;11.40;;;;;;;;;;5082905;28;20509;-61
2023/09/10 13:58:24;;;;;;;11.70;11.20;;;;;;;;;;5079026;28;20482;-61
2023/09/10 14:00:50;;;;;;;12.07;11.57;;;;;;;;;;5079162;28;20549;-63
2023/09/10 14:03:15;;;;;;;11.95;11.45;;;;;;;;;;5081764;28;20032;-62
2023/09/10 14:05:40;;;;;;;12.27;11.77;;;;;;;;;;5080252;28;20044;-62
2023/09/10 14:08:06;;;;;;;11.65;11.15;;;;;;;;;;5081745;28;20023;-63
2023/09/10 14:10:31;;;;;;;11.48;10.98;;;;;;;;;;5080289;28;20162;-62